sensor_id;sensor_type;location;lat;lon;timestamp;P1;durP1;ratioP1;P2;durP2;ratioP2
53775;SDS011;44276;49.534;6.378;2022-08-04T00:01:20;2.60;;;1.25;;
53775;SDS011;44276;49.534;6.378;2022-08-04T00:04:02;1.83;;;1.15;;
53775;SDS011;44276;49.534;6.378;2022-08-04T00:06:44;2.25;;;1.67;;
53775;SDS011;44276;49.534;6.378;2022-08-04T00:09:28;1.40;;;1.00;;
53775;SDS011;44276;49.534;6.378;2022-08-04T00:12:05;1.80;;;1.40;;
53775;SDS011;44276;49.534;6.378;2022-08-04T00:14:40;1.65;;;1.33;;
53775;SDS011;44276;49.534;6.378;2022-08-04T00:17:15;2.00;;;1.40;;
53775;SDS011;44276;49.534;6.378;2022-08-04T00:19:54;2.17;;;1.05;;
53775;SDS011;44276;49.534;6.378;2022-08-04T00:22:27;2.20;;;1.38;;
53775;SDS011;44276;49.534;6.378;2022-08-04T00:24:59;3.30;;;1.10;;
53775;SDS011;44276;49.534;6.378;2022-08-04T00:27:31;2.60;;;1.33;;
53775;SDS011;44276;49.534;6.378;2022-08-04T00:30:02;1.10;;;1.00;;
53775;SDS011;44276;49.534;6.378;2022-08-04T00:32:32;3.83;;;1.23;;
53775;SDS011;44276;49.534;6.378;2022-08-04T00:35:03;2.08;;;1.25;;
53775;SDS011;44276;49.534;6.378;2022-08-04T00:37:36;1.50;;;1.35;;
53775;SDS011;44276;49.534;6.378;2022-08-04T00:40:07;1.63;;;1.30;;
53775;SDS011;44276;49.534;6.378;2022-08-04T00:42:50;5.50;;;1.33;;
53775;SDS011;44276;49.534;6.378;2022-08-04T00:45:39;4.22;;;0.90;;
53775;SDS011;44276;49.534;6.378;2022-08-04T00:48:54;4.35;;;1.40;;
53775;SDS011;44276;49.534;6.378;2022-08-04T00:52:00;3.50;;;1.05;;
53775;SDS011;44276;49.534;6.378;2022-08-04T00:55:02;2.00;;;1.10;;
53775;SDS011;44276;49.534;6.378;2022-08-04T00:57:49;1.48;;;1.20;;
53775;SDS011;44276;49.534;6.378;2022-08-04T01:00:41;2.42;;;1.30;;
53775;SDS011;44276;49.534;6.378;2022-08-04T01:03:20;1.45;;;1.17;;
53775;SDS011;44276;49.534;6.378;2022-08-04T01:06:05;1.67;;;1.13;;
53775;SDS011;44276;49.534;6.378;2022-08-04T01:08:52;7.95;;;1.70;;
53775;SDS011;44276;49.534;6.378;2022-08-04T01:11:55;1.77;;;1.27;;
53775;SDS011;44276;49.534;6.378;2022-08-04T01:14:47;3.90;;;1.13;;
53775;SDS011;44276;49.534;6.378;2022-08-04T01:17:41;2.90;;;1.25;;
53775;SDS011;44276;49.534;6.378;2022-08-04T01:20:25;1.45;;;0.88;;
53775;SDS011;44276;49.534;6.378;2022-08-04T01:23:27;4.93;;;1.55;;
53775;SDS011;44276;49.534;6.378;2022-08-04T01:26:47;4.15;;;1.23;;
53775;SDS011;44276;49.534;6.378;2022-08-04T01:29:26;1.77;;;1.40;;
53775;SDS011;44276;49.534;6.378;2022-08-04T01:32:13;2.08;;;1.17;;
53775;SDS011;44276;49.534;6.378;2022-08-04T01:34:53;1.90;;;0.93;;
53775;SDS011;44276;49.534;6.378;2022-08-04T01:37:33;1.88;;;1.63;;
53775;SDS011;44276;49.534;6.378;2022-08-04T01:40:15;2.90;;;1.50;;
53775;SDS011;44276;49.534;6.378;2022-08-04T01:42:45;2.25;;;1.40;;
53775;SDS011;44276;49.534;6.378;2022-08-04T01:45:21;4.03;;;1.40;;
53775;SDS011;44276;49.534;6.378;2022-08-04T01:47:52;3.13;;;1.55;;
53775;SDS011;44276;49.534;6.378;2022-08-04T01:50:22;2.42;;;1.40;;
53775;SDS011;44276;49.534;6.378;2022-08-04T01:52:53;3.28;;;1.48;;
53775;SDS011;44276;49.534;6.378;2022-08-04T01:55:22;5.97;;;2.00;;
53775;SDS011;44276;49.534;6.378;2022-08-04T01:58:17;8.32;;;1.70;;
53775;SDS011;44276;49.534;6.378;2022-08-04T02:00:54;5.07;;;1.88;;
53775;SDS011;44276;49.534;6.378;2022-08-04T02:03:30;4.45;;;1.65;;
53775;SDS011;44276;49.534;6.378;2022-08-04T02:06:24;2.47;;;1.30;;
53775;SDS011;44276;49.534;6.378;2022-08-04T02:09:13;4.50;;;2.53;;
53775;SDS011;44276;49.534;6.378;2022-08-04T02:11:54;5.18;;;2.10;;
53775;SDS011;44276;49.534;6.378;2022-08-04T02:14:42;2.35;;;1.35;;
53775;SDS011;44276;49.534;6.378;2022-08-04T02:17:21;3.55;;;1.52;;
53775;SDS011;44276;49.534;6.378;2022-08-04T02:20:00;2.10;;;1.52;;
53775;SDS011;44276;49.534;6.378;2022-08-04T02:25:10;8.05;;;2.50;;
53775;SDS011;44276;49.534;6.378;2022-08-04T02:27:51;3.33;;;1.40;;
53775;SDS011;44276;49.534;6.378;2022-08-04T02:30:33;2.50;;;1.80;;
53775;SDS011;44276;49.534;6.378;2022-08-04T02:33:12;2.55;;;1.35;;
53775;SDS011;44276;49.534;6.378;2022-08-04T02:35:49;2.28;;;1.65;;
53775;SDS011;44276;49.534;6.378;2022-08-04T02:38:30;3.65;;;1.48;;
53775;SDS011;44276;49.534;6.378;2022-08-04T02:41:14;4.43;;;1.60;;
53775;SDS011;44276;49.534;6.378;2022-08-04T02:43:44;1.90;;;1.60;;
53775;SDS011;44276;49.534;6.378;2022-08-04T02:46:19;5.47;;;2.55;;
53775;SDS011;44276;49.534;6.378;2022-08-04T02:48:50;4.68;;;1.75;;
53775;SDS011;44276;49.534;6.378;2022-08-04T02:51:23;2.90;;;1.80;;
53775;SDS011;44276;49.534;6.378;2022-08-04T02:53:56;3.28;;;1.98;;
53775;SDS011;44276;49.534;6.378;2022-08-04T02:56:27;6.35;;;2.22;;
53775;SDS011;44276;49.534;6.378;2022-08-04T02:58:58;3.13;;;1.35;;
53775;SDS011;44276;49.534;6.378;2022-08-04T03:01:29;5.13;;;2.40;;
53775;SDS011;44276;49.534;6.378;2022-08-04T03:04:08;2.65;;;1.95;;
53775;SDS011;44276;49.534;6.378;2022-08-04T03:10:25;3.50;;;1.67;;
53775;SDS011;44276;49.534;6.378;2022-08-04T03:13:38;4.07;;;2.08;;
53775;SDS011;44276;49.534;6.378;2022-08-04T03:23:17;3.65;;;2.10;;
53775;SDS011;44276;49.534;6.378;2022-08-04T03:35:57;4.35;;;2.17;;
53775;SDS011;44276;49.534;6.378;2022-08-04T03:39:06;3.47;;;1.73;;
53775;SDS011;44276;49.534;6.378;2022-08-04T03:42:43;3.83;;;2.10;;
53775;SDS011;44276;49.534;6.378;2022-08-04T03:49:23;2.63;;;1.88;;
53775;SDS011;44276;49.534;6.378;2022-08-04T03:52:42;4.65;;;1.92;;
53775;SDS011;44276;49.534;6.378;2022-08-04T03:59:14;4.68;;;1.70;;
53775;SDS011;44276;49.534;6.378;2022-08-04T04:02:09;3.50;;;2.25;;
53775;SDS011;44276;49.534;6.378;2022-08-04T04:08:32;3.63;;;1.83;;
53775;SDS011;44276;49.534;6.378;2022-08-04T04:11:40;2.55;;;1.63;;
53775;SDS011;44276;49.534;6.378;2022-08-04T04:14:39;4.13;;;2.22;;
53775;SDS011;44276;49.534;6.378;2022-08-04T04:17:29;2.53;;;2.25;;
53775;SDS011;44276;49.534;6.378;2022-08-04T04:20:24;6.55;;;2.05;;
53775;SDS011;44276;49.534;6.378;2022-08-04T04:23:23;4.28;;;2.78;;
53775;SDS011;44276;49.534;6.378;2022-08-04T04:26:36;3.78;;;1.70;;
53775;SDS011;44276;49.534;6.378;2022-08-04T04:29:22;3.30;;;2.42;;
53775;SDS011;44276;49.534;6.378;2022-08-04T04:32:20;5.15;;;1.60;;
53775;SDS011;44276;49.534;6.378;2022-08-04T04:35:02;3.60;;;2.20;;
53775;SDS011;44276;49.534;6.378;2022-08-04T04:38:05;7.65;;;1.85;;
53775;SDS011;44276;49.534;6.378;2022-08-04T04:41:04;5.30;;;2.03;;
53775;SDS011;44276;49.534;6.378;2022-08-04T04:44:06;3.42;;;2.15;;
53775;SDS011;44276;49.534;6.378;2022-08-04T04:47:15;3.17;;;2.53;;
53775;SDS011;44276;49.534;6.378;2022-08-04T04:50:17;2.88;;;2.03;;
53775;SDS011;44276;49.534;6.378;2022-08-04T04:53:03;12.53;;;2.90;;
53775;SDS011;44276;49.534;6.378;2022-08-04T04:55:44;4.43;;;2.72;;
53775;SDS011;44276;49.534;6.378;2022-08-04T04:58:21;4.95;;;2.30;;
53775;SDS011;44276;49.534;6.378;2022-08-04T05:01:01;3.05;;;2.40;;
53775;SDS011;44276;49.534;6.378;2022-08-04T05:04:02;6.88;;;1.92;;
53775;SDS011;44276;49.534;6.378;2022-08-04T05:06:54;2.38;;;2.03;;
53775;SDS011;44276;49.534;6.378;2022-08-04T05:09:54;7.07;;;1.77;;
53775;SDS011;44276;49.534;6.378;2022-08-04T05:12:37;3.58;;;1.85;;
53775;SDS011;44276;49.534;6.378;2022-08-04T05:15:46;2.97;;;1.60;;
53775;SDS011;44276;49.534;6.378;2022-08-04T05:18:21;3.28;;;1.52;;
53775;SDS011;44276;49.534;6.378;2022-08-04T05:21:04;2.67;;;1.80;;
53775;SDS011;44276;49.534;6.378;2022-08-04T05:23:53;2.83;;;2.00;;
53775;SDS011;44276;49.534;6.378;2022-08-04T05:26:29;5.50;;;2.33;;
53775;SDS011;44276;49.534;6.378;2022-08-04T05:29:05;5.35;;;2.10;;
53775;SDS011;44276;49.534;6.378;2022-08-04T05:31:40;17.30;;;2.22;;
53775;SDS011;44276;49.534;6.378;2022-08-04T05:34:19;7.47;;;1.95;;
53775;SDS011;44276;49.534;6.378;2022-08-04T05:36:53;5.40;;;1.75;;
53775;SDS011;44276;49.534;6.378;2022-08-04T05:39:27;6.03;;;2.00;;
53775;SDS011;44276;49.534;6.378;2022-08-04T05:42:00;7.18;;;2.15;;
53775;SDS011;44276;49.534;6.378;2022-08-04T05:44:32;5.60;;;2.20;;
53775;SDS011;44276;49.534;6.378;2022-08-04T05:47:04;9.85;;;2.92;;
53775;SDS011;44276;49.534;6.378;2022-08-04T05:49:37;1.92;;;1.50;;
53775;SDS011;44276;49.534;6.378;2022-08-04T05:52:08;5.75;;;1.85;;
53775;SDS011;44276;49.534;6.378;2022-08-04T05:54:38;2.03;;;1.35;;
53775;SDS011;44276;49.534;6.378;2022-08-04T05:57:08;4.32;;;1.50;;
53775;SDS011;44276;49.534;6.378;2022-08-04T05:59:38;8.07;;;1.40;;
53775;SDS011;44276;49.534;6.378;2022-08-04T06:02:13;8.90;;;2.15;;
53775;SDS011;44276;49.534;6.378;2022-08-04T06:04:47;4.38;;;2.08;;
53775;SDS011;44276;49.534;6.378;2022-08-04T06:07:19;4.47;;;1.90;;
53775;SDS011;44276;49.534;6.378;2022-08-04T06:09:48;9.02;;;2.85;;
53775;SDS011;44276;49.534;6.378;2022-08-04T06:12:16;5.20;;;1.40;;
53775;SDS011;44276;49.534;6.378;2022-08-04T06:14:49;4.07;;;1.45;;
53775;SDS011;44276;49.534;6.378;2022-08-04T06:17:29;9.00;;;1.55;;
53775;SDS011;44276;49.534;6.378;2022-08-04T06:20:20;8.98;;;1.75;;
53775;SDS011;44276;49.534;6.378;2022-08-04T06:23:00;5.10;;;2.22;;
53775;SDS011;44276;49.534;6.378;2022-08-04T06:25:35;5.32;;;2.08;;
53775;SDS011;44276;49.534;6.378;2022-08-04T06:28:09;4.68;;;2.00;;
53775;SDS011;44276;49.534;6.378;2022-08-04T06:30:39;3.90;;;1.63;;
53775;SDS011;44276;49.534;6.378;2022-08-04T06:33:14;6.78;;;1.45;;
53775;SDS011;44276;49.534;6.378;2022-08-04T06:35:53;5.60;;;1.77;;
53775;SDS011;44276;49.534;6.378;2022-08-04T06:38:24;8.45;;;1.65;;
53775;SDS011;44276;49.534;6.378;2022-08-04T06:40:55;5.15;;;1.55;;
53775;SDS011;44276;49.534;6.378;2022-08-04T06:43:28;6.15;;;1.73;;
53775;SDS011;44276;49.534;6.378;2022-08-04T06:46:08;7.28;;;2.08;;
53775;SDS011;44276;49.534;6.378;2022-08-04T06:48:38;5.93;;;1.70;;
53775;SDS011;44276;49.534;6.378;2022-08-04T06:51:09;8.32;;;1.85;;
53775;SDS011;44276;49.534;6.378;2022-08-04T06:53:58;4.45;;;2.10;;
53775;SDS011;44276;49.534;6.378;2022-08-04T06:56:26;7.93;;;2.05;;
53775;SDS011;44276;49.534;6.378;2022-08-04T06:58:59;4.18;;;2.25;;
53775;SDS011;44276;49.534;6.378;2022-08-04T07:01:29;3.58;;;1.30;;
53775;SDS011;44276;49.534;6.378;2022-08-04T07:04:00;5.43;;;1.50;;
53775;SDS011;44276;49.534;6.378;2022-08-04T07:06:28;4.53;;;1.20;;
53775;SDS011;44276;49.534;6.378;2022-08-04T07:08:57;7.90;;;2.50;;
53775;SDS011;44276;49.534;6.378;2022-08-04T07:11:25;4.75;;;1.30;;
53775;SDS011;44276;49.534;6.378;2022-08-04T07:14:09;3.78;;;1.55;;
53775;SDS011;44276;49.534;6.378;2022-08-04T07:16:38;2.33;;;1.13;;
53775;SDS011;44276;49.534;6.378;2022-08-04T07:19:09;4.40;;;1.60;;
53775;SDS011;44276;49.534;6.378;2022-08-04T07:21:43;3.63;;;1.20;;
53775;SDS011;44276;49.534;6.378;2022-08-04T07:24:34;3.17;;;1.23;;
53775;SDS011;44276;49.534;6.378;2022-08-04T07:27:07;6.68;;;1.70;;
53775;SDS011;44276;49.534;6.378;2022-08-04T07:29:35;3.88;;;1.30;;
53775;SDS011;44276;49.534;6.378;2022-08-04T07:32:05;1.95;;;1.25;;
53775;SDS011;44276;49.534;6.378;2022-08-04T07:34:37;1.98;;;1.08;;
53775;SDS011;44276;49.534;6.378;2022-08-04T07:37:15;11.90;;;1.88;;
53775;SDS011;44276;49.534;6.378;2022-08-04T07:39:43;2.08;;;0.90;;
53775;SDS011;44276;49.534;6.378;2022-08-04T07:42:13;4.00;;;1.08;;
53775;SDS011;44276;49.534;6.378;2022-08-04T07:44:46;2.78;;;1.35;;
53775;SDS011;44276;49.534;6.378;2022-08-04T07:47:16;7.15;;;1.60;;
53775;SDS011;44276;49.534;6.378;2022-08-04T07:49:51;4.70;;;1.42;;
53775;SDS011;44276;49.534;6.378;2022-08-04T07:52:23;1.88;;;0.90;;
53775;SDS011;44276;49.534;6.378;2022-08-04T07:54:52;2.35;;;1.35;;
53775;SDS011;44276;49.534;6.378;2022-08-04T07:57:21;3.38;;;1.67;;
53775;SDS011;44276;49.534;6.378;2022-08-04T08:00:08;8.15;;;1.27;;
53775;SDS011;44276;49.534;6.378;2022-08-04T08:02:40;3.13;;;1.13;;
53775;SDS011;44276;49.534;6.378;2022-08-04T08:05:13;2.50;;;1.60;;
53775;SDS011;44276;49.534;6.378;2022-08-04T08:07:45;8.05;;;1.98;;
53775;SDS011;44276;49.534;6.378;2022-08-04T08:10:20;10.30;;;1.75;;
53775;SDS011;44276;49.534;6.378;2022-08-04T08:12:48;7.22;;;1.27;;
53775;SDS011;44276;49.534;6.378;2022-08-04T08:15:18;4.85;;;1.52;;
53775;SDS011;44276;49.534;6.378;2022-08-04T08:17:47;9.25;;;1.95;;
53775;SDS011;44276;49.534;6.378;2022-08-04T08:20:26;21.70;;;3.45;;
53775;SDS011;44276;49.534;6.378;2022-08-04T08:22:59;3.72;;;1.20;;
53775;SDS011;44276;49.534;6.378;2022-08-04T08:25:29;7.63;;;1.27;;
53775;SDS011;44276;49.534;6.378;2022-08-04T08:28:09;8.30;;;1.33;;
53775;SDS011;44276;49.534;6.378;2022-08-04T08:30:37;8.07;;;1.50;;
53775;SDS011;44276;49.534;6.378;2022-08-04T08:33:07;14.68;;;2.42;;
53775;SDS011;44276;49.534;6.378;2022-08-04T08:35:46;11.52;;;2.08;;
53775;SDS011;44276;49.534;6.378;2022-08-04T08:38:36;8.75;;;1.52;;
53775;SDS011;44276;49.534;6.378;2022-08-04T08:41:17;8.57;;;1.50;;
53775;SDS011;44276;49.534;6.378;2022-08-04T08:47:26;13.45;;;2.40;;
53775;SDS011;44276;49.534;6.378;2022-08-04T08:50:45;4.00;;;1.40;;
53775;SDS011;44276;49.534;6.378;2022-08-04T08:53:39;5.20;;;1.50;;
53775;SDS011;44276;49.534;6.378;2022-08-04T08:56:31;5.47;;;2.08;;
53775;SDS011;44276;49.534;6.378;2022-08-04T08:59:25;5.30;;;1.80;;
53775;SDS011;44276;49.534;6.378;2022-08-04T09:05:50;12.93;;;2.03;;
53775;SDS011;44276;49.534;6.378;2022-08-04T09:08:51;9.32;;;2.30;;
53775;SDS011;44276;49.534;6.378;2022-08-04T09:11:49;9.75;;;1.63;;
53775;SDS011;44276;49.534;6.378;2022-08-04T09:14:32;4.60;;;1.45;;
53775;SDS011;44276;49.534;6.378;2022-08-04T09:17:10;10.13;;;1.75;;
53775;SDS011;44276;49.534;6.378;2022-08-04T09:19:50;16.50;;;1.67;;
53775;SDS011;44276;49.534;6.378;2022-08-04T09:22:27;8.55;;;2.03;;
53775;SDS011;44276;49.534;6.378;2022-08-04T09:25:06;10.88;;;2.92;;
53775;SDS011;44276;49.534;6.378;2022-08-04T09:30:18;12.43;;;2.00;;
53775;SDS011;44276;49.534;6.378;2022-08-04T09:32:56;10.55;;;2.20;;
53775;SDS011;44276;49.534;6.378;2022-08-04T09:35:36;6.00;;;1.15;;
53775;SDS011;44276;49.534;6.378;2022-08-04T09:38:15;5.78;;;1.58;;
53775;SDS011;44276;49.534;6.378;2022-08-04T09:40:58;4.13;;;1.30;;
53775;SDS011;44276;49.534;6.378;2022-08-04T09:44:00;9.13;;;1.38;;
53775;SDS011;44276;49.534;6.378;2022-08-04T09:47:09;8.52;;;1.60;;
53775;SDS011;44276;49.534;6.378;2022-08-04T09:49:46;4.38;;;1.10;;
53775;SDS011;44276;49.534;6.378;2022-08-04T09:52:28;4.70;;;0.82;;
53775;SDS011;44276;49.534;6.378;2022-08-04T09:55:15;3.05;;;0.75;;
53775;SDS011;44276;49.534;6.378;2022-08-04T09:58:27;1.40;;;0.80;;
53775;SDS011;44276;49.534;6.378;2022-08-04T10:03:51;3.45;;;0.95;;
53775;SDS011;44276;49.534;6.378;2022-08-04T10:06:31;4.03;;;0.88;;
53775;SDS011;44276;49.534;6.378;2022-08-04T10:12:04;1.73;;;0.90;;
53775;SDS011;44276;49.534;6.378;2022-08-04T10:14:56;2.88;;;0.75;;
53775;SDS011;44276;49.534;6.378;2022-08-04T10:20:48;4.22;;;1.10;;
53775;SDS011;44276;49.534;6.378;2022-08-04T10:23:41;10.35;;;1.38;;
53775;SDS011;44276;49.534;6.378;2022-08-04T10:26:28;2.55;;;0.50;;
53775;SDS011;44276;49.534;6.378;2022-08-04T10:29:08;4.15;;;0.77;;
53775;SDS011;44276;49.534;6.378;2022-08-04T10:31:43;3.03;;;0.80;;
53775;SDS011;44276;49.534;6.378;2022-08-04T10:34:25;1.40;;;0.80;;
53775;SDS011;44276;49.534;6.378;2022-08-04T10:37:05;0.70;;;0.52;;
53775;SDS011;44276;49.534;6.378;2022-08-04T10:39:53;2.65;;;0.90;;
53775;SDS011;44276;49.534;6.378;2022-08-04T10:42:49;3.40;;;0.70;;
53775;SDS011;44276;49.534;6.378;2022-08-04T10:45:46;2.53;;;0.50;;
53775;SDS011;44276;49.534;6.378;2022-08-04T10:48:26;0.93;;;0.40;;
53775;SDS011;44276;49.534;6.378;2022-08-04T10:51:14;3.28;;;0.55;;
53775;SDS011;44276;49.534;6.378;2022-08-04T10:53:54;2.17;;;0.68;;
53775;SDS011;44276;49.534;6.378;2022-08-04T10:56:31;1.58;;;0.60;;
53775;SDS011;44276;49.534;6.378;2022-08-04T10:59:07;1.45;;;0.73;;
53775;SDS011;44276;49.534;6.378;2022-08-04T11:01:43;1.70;;;1.10;;
53775;SDS011;44276;49.534;6.378;2022-08-04T11:04:30;2.70;;;0.73;;
53775;SDS011;44276;49.534;6.378;2022-08-04T11:07:10;1.83;;;0.60;;
53775;SDS011;44276;49.534;6.378;2022-08-04T11:09:43;4.72;;;0.90;;
53775;SDS011;44276;49.534;6.378;2022-08-04T11:12:13;1.02;;;0.32;;
53775;SDS011;44276;49.534;6.378;2022-08-04T11:14:49;1.45;;;0.60;;
53775;SDS011;44276;49.534;6.378;2022-08-04T11:17:23;1.23;;;0.38;;
53775;SDS011;44276;49.534;6.378;2022-08-04T11:20:01;2.47;;;0.80;;
53775;SDS011;44276;49.534;6.378;2022-08-04T11:23:01;5.30;;;0.60;;
53775;SDS011;44276;49.534;6.378;2022-08-04T11:25:39;2.22;;;0.40;;
53775;SDS011;44276;49.534;6.378;2022-08-04T11:28:22;1.75;;;0.50;;
53775;SDS011;44276;49.534;6.378;2022-08-04T11:31:04;3.37;;;0.53;;
53775;SDS011;44276;49.534;6.378;2022-08-04T11:33:40;1.07;;;0.40;;
53775;SDS011;44276;49.534;6.378;2022-08-04T11:36:25;1.48;;;0.40;;
53775;SDS011;44276;49.534;6.378;2022-08-04T11:39:07;0.98;;;0.40;;
53775;SDS011;44276;49.534;6.378;2022-08-04T11:41:47;2.47;;;0.50;;
53775;SDS011;44276;49.534;6.378;2022-08-04T11:44:22;4.57;;;0.55;;
53775;SDS011;44276;49.534;6.378;2022-08-04T11:46:59;2.90;;;0.75;;
53775;SDS011;44276;49.534;6.378;2022-08-04T11:49:36;3.40;;;0.60;;
53775;SDS011;44276;49.534;6.378;2022-08-04T11:52:22;2.35;;;0.68;;
53775;SDS011;44276;49.534;6.378;2022-08-04T11:54:53;3.22;;;0.70;;
53775;SDS011;44276;49.534;6.378;2022-08-04T11:57:25;1.98;;;0.80;;
53775;SDS011;44276;49.534;6.378;2022-08-04T12:00:03;1.25;;;0.68;;
53775;SDS011;44276;49.534;6.378;2022-08-04T12:02:40;1.02;;;0.50;;
53775;SDS011;44276;49.534;6.378;2022-08-04T12:05:40;1.00;;;0.60;;
53775;SDS011;44276;49.534;6.378;2022-08-04T12:08:25;0.90;;;0.43;;
53775;SDS011;44276;49.534;6.378;2022-08-04T12:11:19;0.68;;;0.47;;
53775;SDS011;44276;49.534;6.378;2022-08-04T12:16:43;1.73;;;0.40;;
53775;SDS011;44276;49.534;6.378;2022-08-04T12:19:22;2.80;;;0.60;;
53775;SDS011;44276;49.534;6.378;2022-08-04T12:22:23;1.05;;;0.60;;
53775;SDS011;44276;49.534;6.378;2022-08-04T12:24:58;1.55;;;0.60;;
53775;SDS011;44276;49.534;6.378;2022-08-04T12:27:32;1.25;;;0.45;;
53775;SDS011;44276;49.534;6.378;2022-08-04T12:30:08;2.30;;;0.45;;
53775;SDS011;44276;49.534;6.378;2022-08-04T12:33:01;0.60;;;0.30;;
53775;SDS011;44276;49.534;6.378;2022-08-04T12:35:43;1.73;;;0.70;;
53775;SDS011;44276;49.534;6.378;2022-08-04T12:38:37;3.33;;;0.43;;
53775;SDS011;44276;49.534;6.378;2022-08-04T12:41:18;1.52;;;0.68;;
53775;SDS011;44276;49.534;6.378;2022-08-04T12:43:54;0.93;;;0.50;;
53775;SDS011;44276;49.534;6.378;2022-08-04T12:46:53;2.78;;;0.60;;
53775;SDS011;44276;49.534;6.378;2022-08-04T12:49:43;0.50;;;0.45;;
53775;SDS011;44276;49.534;6.378;2022-08-04T12:52:27;4.30;;;1.05;;
53775;SDS011;44276;49.534;6.378;2022-08-04T12:55:18;4.38;;;0.60;;
53775;SDS011;44276;49.534;6.378;2022-08-04T12:57:50;2.03;;;0.52;;
53775;SDS011;44276;49.534;6.378;2022-08-04T13:00:24;1.85;;;0.70;;
53775;SDS011;44276;49.534;6.378;2022-08-04T13:03:07;7.40;;;0.60;;
53775;SDS011;44276;49.534;6.378;2022-08-04T13:05:41;1.10;;;0.45;;
53775;SDS011;44276;49.534;6.378;2022-08-04T13:08:12;3.35;;;0.93;;
53775;SDS011;44276;49.534;6.378;2022-08-04T13:10:43;3.78;;;0.50;;
53775;SDS011;44276;49.534;6.378;2022-08-04T13:13:15;1.48;;;0.70;;
53775;SDS011;44276;49.534;6.378;2022-08-04T13:15:55;4.55;;;0.60;;
53775;SDS011;44276;49.534;6.378;2022-08-04T13:18:27;0.55;;;0.40;;
53775;SDS011;44276;49.534;6.378;2022-08-04T13:21:11;0.70;;;0.40;;
53775;SDS011;44276;49.534;6.378;2022-08-04T13:24:02;2.45;;;0.55;;
53775;SDS011;44276;49.534;6.378;2022-08-04T13:26:49;1.65;;;0.60;;
53775;SDS011;44276;49.534;6.378;2022-08-04T13:29:30;2.25;;;0.50;;
53775;SDS011;44276;49.534;6.378;2022-08-04T13:32:24;2.95;;;0.80;;
53775;SDS011;44276;49.534;6.378;2022-08-04T13:34:56;2.38;;;0.65;;
53775;SDS011;44276;49.534;6.378;2022-08-04T13:37:29;0.40;;;0.40;;
53775;SDS011;44276;49.534;6.378;2022-08-04T13:40:01;1.00;;;0.47;;
53775;SDS011;44276;49.534;6.378;2022-08-04T13:42:32;1.67;;;0.60;;
53775;SDS011;44276;49.534;6.378;2022-08-04T13:45:04;2.05;;;0.43;;
53775;SDS011;44276;49.534;6.378;2022-08-04T13:47:36;3.78;;;0.77;;
53775;SDS011;44276;49.534;6.378;2022-08-04T13:50:10;1.20;;;0.70;;
53775;SDS011;44276;49.534;6.378;2022-08-04T13:52:45;3.10;;;0.68;;
53775;SDS011;44276;49.534;6.378;2022-08-04T13:55:17;1.13;;;0.47;;
53775;SDS011;44276;49.534;6.378;2022-08-04T13:57:49;2.47;;;0.70;;
53775;SDS011;44276;49.534;6.378;2022-08-04T14:03:03;1.70;;;0.50;;
53775;SDS011;44276;49.534;6.378;2022-08-04T14:08:48;6.45;;;0.73;;
53775;SDS011;44276;49.534;6.378;2022-08-04T14:11:20;2.35;;;0.60;;
53775;SDS011;44276;49.534;6.378;2022-08-04T14:14:20;0.77;;;0.50;;
53775;SDS011;44276;49.534;6.378;2022-08-04T14:16:54;1.08;;;0.50;;
53775;SDS011;44276;49.534;6.378;2022-08-04T14:19:25;1.42;;;0.70;;
53775;SDS011;44276;49.534;6.378;2022-08-04T14:22:03;2.65;;;0.57;;
53775;SDS011;44276;49.534;6.378;2022-08-04T14:24:31;0.52;;;0.40;;
53775;SDS011;44276;49.534;6.378;2022-08-04T14:26:59;4.80;;;1.00;;
53775;SDS011;44276;49.534;6.378;2022-08-04T14:29:34;3.50;;;0.60;;
53775;SDS011;44276;49.534;6.378;2022-08-04T14:32:07;1.35;;;1.10;;
53775;SDS011;44276;49.534;6.378;2022-08-04T14:34:40;1.85;;;0.60;;
53775;SDS011;44276;49.534;6.378;2022-08-04T14:37:16;0.60;;;0.45;;
53775;SDS011;44276;49.534;6.378;2022-08-04T14:39:48;1.00;;;0.50;;
53775;SDS011;44276;49.534;6.378;2022-08-04T14:42:40;0.73;;;0.50;;
53775;SDS011;44276;49.534;6.378;2022-08-04T14:45:28;4.22;;;0.50;;
53775;SDS011;44276;49.534;6.378;2022-08-04T14:47:58;1.70;;;0.85;;
53775;SDS011;44276;49.534;6.378;2022-08-04T14:50:35;2.63;;;0.70;;
53775;SDS011;44276;49.534;6.378;2022-08-04T14:53:07;7.70;;;1.25;;
53775;SDS011;44276;49.534;6.378;2022-08-04T14:55:39;3.75;;;0.82;;
53775;SDS011;44276;49.534;6.378;2022-08-04T14:58:18;3.65;;;0.75;;
53775;SDS011;44276;49.534;6.378;2022-08-04T15:01:03;1.92;;;0.82;;
53775;SDS011;44276;49.534;6.378;2022-08-04T15:03:38;2.80;;;0.80;;
53775;SDS011;44276;49.534;6.378;2022-08-04T15:06:18;6.93;;;0.60;;
53775;SDS011;44276;49.534;6.378;2022-08-04T15:08:51;0.88;;;0.50;;
53775;SDS011;44276;49.534;6.378;2022-08-04T15:11:21;1.13;;;0.68;;
53775;SDS011;44276;49.534;6.378;2022-08-04T15:13:51;2.13;;;0.80;;
53775;SDS011;44276;49.534;6.378;2022-08-04T15:16:20;2.70;;;0.60;;
53775;SDS011;44276;49.534;6.378;2022-08-04T15:18:52;2.95;;;0.90;;
53775;SDS011;44276;49.534;6.378;2022-08-04T15:21:23;1.83;;;1.00;;
53775;SDS011;44276;49.534;6.378;2022-08-04T15:23:55;3.47;;;0.70;;
53775;SDS011;44276;49.534;6.378;2022-08-04T15:26:28;2.47;;;0.52;;
53775;SDS011;44276;49.534;6.378;2022-08-04T15:29:04;1.10;;;0.60;;
53775;SDS011;44276;49.534;6.378;2022-08-04T15:31:43;1.95;;;0.68;;
53775;SDS011;44276;49.534;6.378;2022-08-04T15:37:30;1.85;;;0.55;;
53775;SDS011;44276;49.534;6.378;2022-08-04T15:40:23;1.08;;;0.50;;
53775;SDS011;44276;49.534;6.378;2022-08-04T15:43:08;5.53;;;0.73;;
53775;SDS011;44276;49.534;6.378;2022-08-04T15:45:54;0.93;;;0.60;;
53775;SDS011;44276;49.534;6.378;2022-08-04T15:48:45;4.22;;;1.17;;
53775;SDS011;44276;49.534;6.378;2022-08-04T15:51:15;2.72;;;0.70;;
53775;SDS011;44276;49.534;6.378;2022-08-04T15:56:58;1.80;;;1.55;;
53775;SDS011;44276;49.534;6.378;2022-08-04T16:05:28;3.40;;;1.00;;
53775;SDS011;44276;49.534;6.378;2022-08-04T16:08:10;2.53;;;0.90;;
53775;SDS011;44276;49.534;6.378;2022-08-04T16:10:43;2.30;;;0.77;;
53775;SDS011;44276;49.534;6.378;2022-08-04T16:13:18;1.65;;;0.85;;
53775;SDS011;44276;49.534;6.378;2022-08-04T16:15:49;2.22;;;0.82;;
53775;SDS011;44276;49.534;6.378;2022-08-04T16:18:38;4.32;;;0.82;;
53775;SDS011;44276;49.534;6.378;2022-08-04T16:21:16;6.70;;;1.10;;
53775;SDS011;44276;49.534;6.378;2022-08-04T16:23:53;0.40;;;0.40;;
53775;SDS011;44276;49.534;6.378;2022-08-04T16:26:43;4.25;;;1.23;;
53775;SDS011;44276;49.534;6.378;2022-08-04T16:29:29;0.82;;;0.57;;
53775;SDS011;44276;49.534;6.378;2022-08-04T16:32:17;3.42;;;1.13;;
53775;SDS011;44276;49.534;6.378;2022-08-04T16:34:52;2.60;;;0.75;;
53775;SDS011;44276;49.534;6.378;2022-08-04T16:37:29;4.57;;;1.10;;
53775;SDS011;44276;49.534;6.378;2022-08-04T16:40:22;1.60;;;0.82;;
53775;SDS011;44276;49.534;6.378;2022-08-04T16:43:04;2.55;;;1.17;;
53775;SDS011;44276;49.534;6.378;2022-08-04T16:45:40;3.13;;;0.70;;
53775;SDS011;44276;49.534;6.378;2022-08-04T16:48:11;2.67;;;0.73;;
53775;SDS011;44276;49.534;6.378;2022-08-04T16:50:44;4.60;;;1.10;;
53775;SDS011;44276;49.534;6.378;2022-08-04T16:56:06;1.60;;;0.73;;
53775;SDS011;44276;49.534;6.378;2022-08-04T16:58:37;4.53;;;0.68;;
53775;SDS011;44276;49.534;6.378;2022-08-04T17:01:21;2.50;;;0.75;;
53775;SDS011;44276;49.534;6.378;2022-08-04T17:04:02;0.75;;;0.45;;
53775;SDS011;44276;49.534;6.378;2022-08-04T17:06:32;3.38;;;1.42;;
53775;SDS011;44276;49.534;6.378;2022-08-04T17:09:08;1.50;;;0.93;;
53775;SDS011;44276;49.534;6.378;2022-08-04T17:11:39;2.65;;;0.80;;
53775;SDS011;44276;49.534;6.378;2022-08-04T17:14:09;3.00;;;1.00;;
53775;SDS011;44276;49.534;6.378;2022-08-04T17:16:40;1.50;;;0.82;;
53775;SDS011;44276;49.534;6.378;2022-08-04T17:19:09;6.15;;;1.02;;
53775;SDS011;44276;49.534;6.378;2022-08-04T17:21:51;1.20;;;1.00;;
53775;SDS011;44276;49.534;6.378;2022-08-04T17:24:30;1.67;;;1.13;;